createdAt,value
2018-08-07T00:01:57.766Z,2.70
2018-08-07T00:04:27.942Z,2.60
2018-08-07T00:06:58.348Z,2.80
2018-08-07T00:09:28.502Z,2.70
2018-08-07T00:11:58.517Z,3.27
2018-08-07T00:14:29.181Z,3.23
2018-08-07T00:16:59.175Z,2.93
2018-08-07T00:19:29.414Z,2.30
2018-08-07T00:21:59.578Z,2.67
2018-08-07T00:24:29.761Z,3.10
2018-08-07T00:27:00.420Z,2.80
2018-08-07T00:29:30.368Z,2.80
2018-08-07T00:32:00.563Z,2.67
2018-08-07T00:34:30.940Z,3.00
2018-08-07T00:37:00.831Z,2.73
2018-08-07T00:39:30.839Z,3.37
2018-08-07T00:42:00.890Z,3.17
2018-08-07T00:44:30.857Z,2.80
2018-08-07T00:47:01.491Z,3.00
2018-08-07T00:49:31.462Z,2.80
2018-08-07T00:52:01.669Z,2.90
2018-08-07T00:54:32.139Z,2.63
2018-08-07T00:57:02.360Z,2.73
2018-08-07T00:59:32.280Z,2.90
2018-08-07T01:02:02.664Z,2.93
2018-08-07T01:04:32.615Z,3.00
2018-08-07T01:07:02.655Z,2.67
2018-08-07T01:09:33.324Z,2.97
2018-08-07T01:12:03.399Z,3.13
2018-08-07T01:14:33.323Z,2.90
2018-08-07T01:17:03.675Z,3.13
2018-08-07T01:19:33.756Z,3.50
2018-08-07T01:22:03.977Z,2.80
2018-08-07T01:24:34.319Z,2.80
2018-08-07T01:27:04.667Z,3.17
2018-08-07T01:29:34.666Z,3.10
2018-08-07T01:32:04.990Z,2.77
2018-08-07T01:34:34.945Z,2.93
2018-08-07T01:37:05.017Z,2.83
2018-08-07T01:39:35.622Z,3.87
2018-08-07T01:42:05.864Z,2.70
2018-08-07T01:44:35.783Z,3.53
2018-08-07T01:47:05.750Z,2.97
2018-08-07T01:49:35.713Z,2.90
2018-08-07T01:52:05.851Z,3.10
2018-08-07T01:54:35.838Z,2.70
2018-08-07T01:57:06.427Z,3.43
2018-08-07T01:59:36.337Z,3.03
2018-08-07T02:02:06.435Z,3.00
2018-08-07T02:04:36.407Z,2.80
2018-08-07T02:07:06.021Z,2.90
2018-08-07T02:09:35.954Z,3.10
2018-08-07T02:12:06.148Z,3.20
2018-08-07T02:14:36.294Z,2.83
2018-08-07T02:17:07.367Z,2.93
2018-08-07T02:19:37.336Z,2.70
2018-08-07T02:22:06.798Z,3.10
2018-08-07T02:24:37.253Z,2.90
2018-08-07T02:27:07.351Z,3.30
2018-08-07T02:29:37.225Z,2.80
2018-08-07T02:32:07.948Z,3.30
2018-08-07T02:34:38.035Z,2.83
2018-08-07T02:37:08.067Z,3.10
2018-08-07T02:39:38.011Z,3.00
2018-08-07T02:42:07.942Z,3.10
2018-08-07T02:44:37.867Z,2.97
2018-08-07T02:47:07.880Z,3.20
2018-08-07T02:49:37.782Z,3.10
2018-08-07T02:52:08.223Z,2.93
2018-08-07T02:54:38.213Z,2.87
2018-08-07T02:57:08.246Z,3.17
2018-08-07T02:59:38.467Z,2.57
2018-08-07T03:02:09.121Z,2.60
2018-08-07T03:04:39.031Z,3.10
2018-08-07T03:07:09.650Z,3.03
2018-08-07T03:09:39.548Z,2.80
2018-08-07T03:12:08.962Z,3.00
2018-08-07T03:14:38.955Z,2.73
2018-08-07T03:17:08.158Z,3.10
2018-08-07T03:19:38.125Z,3.00
2018-08-07T03:22:08.323Z,3.20
2018-08-07T03:24:38.217Z,3.30
2018-08-07T03:27:08.403Z,2.87
2018-08-07T03:29:38.357Z,3.00
2018-08-07T03:32:08.554Z,2.70
2018-08-07T03:34:38.601Z,3.20
2018-08-07T03:37:09.233Z,3.40
2018-08-07T03:39:39.140Z,3.10
2018-08-07T03:42:09.333Z,3.40
2018-08-07T03:44:39.387Z,3.30
2018-08-07T03:47:09.506Z,2.83
2018-08-07T03:49:39.493Z,2.93
2018-08-07T03:52:09.607Z,2.90
2018-08-07T03:54:39.481Z,3.20
2018-08-07T03:57:09.701Z,3.20
2018-08-07T03:59:39.773Z,3.17
2018-08-07T04:02:09.847Z,2.80
2018-08-07T04:04:39.799Z,2.70
2018-08-07T04:07:09.779Z,2.80
2018-08-07T04:09:39.780Z,2.93
2018-08-07T04:12:10.495Z,3.03
2018-08-07T04:14:40.443Z,2.97
2018-08-07T04:17:10.550Z,3.10
2018-08-07T04:19:40.523Z,3.10
2018-08-07T04:22:10.551Z,2.87
2018-08-07T04:24:40.447Z,2.60
2018-08-07T04:27:10.861Z,3.53
2018-08-07T04:29:40.873Z,3.10
2018-08-07T04:32:11.030Z,2.90
2018-08-07T04:34:40.965Z,3.07
2018-08-07T04:37:11.084Z,3.30
2018-08-07T04:39:41.006Z,2.70
2018-08-07T04:42:11.546Z,3.37
2018-08-07T04:44:42.103Z,2.90
2018-08-07T04:47:12.292Z,3.13
2018-08-07T04:49:42.307Z,3.07
2018-08-07T04:52:12.440Z,3.40
2018-08-07T04:54:42.450Z,2.73
2018-08-07T04:57:12.900Z,3.30
2018-08-07T04:59:42.771Z,3.03
2018-08-07T05:02:12.786Z,3.00
2018-08-07T05:04:42.944Z,2.73
2018-08-07T05:07:12.882Z,3.70
2018-08-07T05:09:43.000Z,2.93
2018-08-07T05:12:13.206Z,3.20
2018-08-07T05:14:43.258Z,2.90
2018-08-07T05:17:26.539Z,3.20
2018-08-07T05:19:56.528Z,3.63
2018-08-07T05:22:27.260Z,3.13
2018-08-07T05:24:57.339Z,3.07
2018-08-07T05:27:27.521Z,2.93
2018-08-07T05:29:58.360Z,2.90
2018-08-07T05:32:29.229Z,2.53
2018-08-07T05:35:00.055Z,3.20
2018-08-07T05:37:32.460Z,3.00
2018-08-07T05:40:02.854Z,2.90
2018-08-07T05:42:36.732Z,2.90
2018-08-07T05:45:08.877Z,3.25
2018-08-07T05:47:39.291Z,2.77
2018-08-07T05:50:13.307Z,2.97
2018-08-07T05:52:45.228Z,3.20
2018-08-07T05:55:17.131Z,3.00
2018-08-07T05:57:47.504Z,4.80
2018-08-07T06:00:19.549Z,5.80
2018-08-07T06:02:50.966Z,6.53
2018-08-07T06:05:21.311Z,4.03
2018-08-07T06:07:52.334Z,3.30
2018-08-07T06:10:22.614Z,3.30
2018-08-07T06:12:54.430Z,3.20
2018-08-07T06:15:23.817Z,3.00
2018-08-07T06:17:54.116Z,3.13
2018-08-07T06:20:24.796Z,3.20
2018-08-07T06:22:55.264Z,2.87
2018-08-07T06:25:25.625Z,2.87
2018-08-07T06:27:56.228Z,3.43
2018-08-07T06:30:26.368Z,3.60
2018-08-07T06:32:56.411Z,3.33
2018-08-07T06:35:25.907Z,3.23
2018-08-07T06:37:56.552Z,3.03
2018-08-07T06:40:27.609Z,3.07
2018-08-07T06:42:57.840Z,3.00
2018-08-07T06:45:28.281Z,3.63
2018-08-07T06:47:58.435Z,3.20
2018-08-07T06:50:29.044Z,2.97
2018-08-07T06:52:59.484Z,3.17
2018-08-07T06:55:29.900Z,3.27
2018-08-07T06:58:00.041Z,3.08
2018-08-07T07:00:31.223Z,3.40
2018-08-07T07:03:04.712Z,3.30
2018-08-07T07:05:35.177Z,3.17
2018-08-07T07:08:07.723Z,3.43
2018-08-07T07:10:37.941Z,2.77
2018-08-07T07:13:09.386Z,3.30
2018-08-07T07:15:40.316Z,3.23
2018-08-07T07:18:10.331Z,2.93
2018-08-07T07:20:41.042Z,3.60
2018-08-07T07:23:11.887Z,3.30
2018-08-07T07:25:42.403Z,3.03
2018-08-07T07:28:13.027Z,3.37
2018-08-07T07:30:43.284Z,3.23
2018-08-07T07:33:13.578Z,3.27
2018-08-07T07:35:43.725Z,3.00
2018-08-07T07:38:14.713Z,3.03
2018-08-07T07:40:45.045Z,3.07
2018-08-07T07:43:15.528Z,3.27
2018-08-07T07:45:46.071Z,3.93
2018-08-07T07:48:16.194Z,3.07
2018-08-07T07:50:46.520Z,2.80
2018-08-07T07:53:17.434Z,2.97
2018-08-07T07:55:48.923Z,3.67
2018-08-07T07:58:19.286Z,2.87
2018-08-07T08:00:49.471Z,3.43
2018-08-07T08:03:20.080Z,3.40
2018-08-07T08:05:50.536Z,2.90
2018-08-07T08:08:20.940Z,3.30
2018-08-07T08:10:53.650Z,3.07
2018-08-07T08:13:24.798Z,3.73
2018-08-07T08:15:55.054Z,3.60
2018-08-07T08:18:25.925Z,3.13
2018-08-07T08:20:56.356Z,3.70
2018-08-07T08:23:26.532Z,3.20
2018-08-07T08:25:58.900Z,3.30
2018-08-07T08:28:29.795Z,3.17
2018-08-07T08:30:59.919Z,3.23
2018-08-07T08:33:37.750Z,3.20
2018-08-07T08:36:07.933Z,3.10
2018-08-07T08:38:38.096Z,3.10
2018-08-07T08:41:08.737Z,3.03
2018-08-07T08:43:39.398Z,3.17
2018-08-07T08:46:10.605Z,3.40
2018-08-07T08:48:41.710Z,3.00
2018-08-07T08:51:11.758Z,2.60
2018-08-07T08:53:41.826Z,2.90
2018-08-07T08:56:12.275Z,3.20
2018-08-07T08:58:43.927Z,2.97
2018-08-07T09:01:14.562Z,3.80
2018-08-07T09:03:45.359Z,3.20
2018-08-07T09:06:16.191Z,2.90
2018-08-07T09:08:46.690Z,3.07
2018-08-07T09:11:17.709Z,3.27
2018-08-07T09:13:48.816Z,3.10
2018-08-07T09:16:20.447Z,2.83
2018-08-07T09:18:54.052Z,3.00
2018-08-07T09:21:24.791Z,2.70
2018-08-07T09:23:55.184Z,3.27
2018-08-07T09:26:25.999Z,3.30
2018-08-07T09:28:56.660Z,3.63
2018-08-07T09:31:27.402Z,3.20
2018-08-07T09:33:58.586Z,3.00
2018-08-07T09:36:29.583Z,3.07
2018-08-07T09:39:01.127Z,3.27
2018-08-07T09:41:32.538Z,3.00
2018-08-07T09:44:04.503Z,3.20
2018-08-07T09:46:34.976Z,3.00
2018-08-07T09:49:06.698Z,3.13
2018-08-07T09:51:41.535Z,3.17
2018-08-07T09:54:11.981Z,3.63
2018-08-07T09:56:42.914Z,3.20
2018-08-07T09:59:13.813Z,3.50
2018-08-07T10:01:50.589Z,3.17
2018-08-07T10:04:22.519Z,3.30
2018-08-07T10:06:53.504Z,3.30
2018-08-07T10:09:24.171Z,4.27
2018-08-07T10:11:54.432Z,3.43
2018-08-07T10:14:28.992Z,3.20
2018-08-07T10:17:00.056Z,3.30
2018-08-07T10:19:30.543Z,3.70
2018-08-07T10:22:02.655Z,3.10
2018-08-07T10:24:35.408Z,3.10
2018-08-07T10:27:07.648Z,3.40
2018-08-07T10:29:38.408Z,3.07
2018-08-07T10:32:11.978Z,3.07
2018-08-07T10:34:42.463Z,3.00
2018-08-07T10:37:12.875Z,3.13
2018-08-07T10:39:45.003Z,3.03
2018-08-07T10:42:15.431Z,3.10
2018-08-07T10:44:45.942Z,3.13
2018-08-07T10:47:16.628Z,2.73
2018-08-07T10:49:47.054Z,2.50
2018-08-07T10:52:17.121Z,2.27
2018-08-07T10:54:47.779Z,2.73
2018-08-07T10:57:18.151Z,3.00
2018-08-07T10:59:50.126Z,2.30
2018-08-07T11:02:20.408Z,2.50
2018-08-07T11:04:55.141Z,2.57
2018-08-07T11:07:27.777Z,2.87
2018-08-07T11:10:00.726Z,2.60
2018-08-07T11:12:32.669Z,2.43
2018-08-07T11:15:03.383Z,2.50
2018-08-07T11:17:34.363Z,2.20
2018-08-07T11:20:10.310Z,2.60
2018-08-07T11:22:40.672Z,2.47
2018-08-07T11:25:14.265Z,2.87
2018-08-07T11:27:45.940Z,3.27
2018-08-07T11:30:20.493Z,3.47
2018-08-07T11:32:51.283Z,3.10
2018-08-07T11:35:22.353Z,2.97
2018-08-07T11:37:54.352Z,2.60
2018-08-07T11:40:26.192Z,2.37
2018-08-07T11:42:57.651Z,2.47
2018-08-07T11:45:31.501Z,2.47
2018-08-07T11:48:01.764Z,2.70
2018-08-07T11:50:34.165Z,3.10
2018-08-07T11:53:04.937Z,2.87
2018-08-07T11:55:35.758Z,2.80
2018-08-07T11:58:07.890Z,2.70
2018-08-07T12:00:41.116Z,3.80
2018-08-07T12:03:14.516Z,2.60
2018-08-07T12:05:46.668Z,2.97
2018-08-07T12:08:18.201Z,2.57
2018-08-07T12:10:49.000Z,2.97
2018-08-07T12:13:19.497Z,2.53
2018-08-07T12:15:50.517Z,2.40
2018-08-07T12:18:22.357Z,2.50
2018-08-07T12:20:52.421Z,2.80
2018-08-07T12:23:22.770Z,2.63
2018-08-07T12:25:52.917Z,2.93
2018-08-07T12:28:23.852Z,2.73
2018-08-07T12:30:54.959Z,2.80
2018-08-07T12:33:25.188Z,2.20
2018-08-07T12:35:55.741Z,2.33
2018-08-07T12:38:26.361Z,2.70
2018-08-07T12:40:58.167Z,2.47
2018-08-07T12:43:29.285Z,2.40
2018-08-07T12:45:59.795Z,2.97
2018-08-07T12:48:31.175Z,2.73
2018-08-07T12:51:01.633Z,2.60
2018-08-07T12:53:32.323Z,2.70
2018-08-07T12:56:03.584Z,2.67
2018-08-07T12:58:34.767Z,2.57
2018-08-07T13:01:05.564Z,2.47
2018-08-07T13:03:36.476Z,3.00
2018-08-07T13:06:07.501Z,2.70
2018-08-07T13:08:37.847Z,2.50
2018-08-07T13:11:08.108Z,2.27
2018-08-07T13:13:39.230Z,3.05
2018-08-07T13:16:09.661Z,2.40
2018-08-07T13:18:41.218Z,2.90
2018-08-07T13:21:11.381Z,2.52
2018-08-07T13:23:41.599Z,2.77
2018-08-07T13:26:12.225Z,2.85
2018-08-07T13:28:42.592Z,2.85
2018-08-07T13:31:13.364Z,2.87
2018-08-07T13:33:44.756Z,2.80
2018-08-07T13:36:15.226Z,2.95
2018-08-07T13:38:45.795Z,2.70
2018-08-07T13:41:16.233Z,2.65
2018-08-07T13:43:46.876Z,2.80
2018-08-07T13:46:17.386Z,3.75
2018-08-07T13:48:48.295Z,3.22
2018-08-07T13:51:18.665Z,2.92
2018-08-07T13:54:00.760Z,2.40
2018-08-07T13:56:30.979Z,2.67
2018-08-07T13:59:02.032Z,2.55
2018-08-07T14:01:32.652Z,2.60
2018-08-07T14:04:04.175Z,2.72
2018-08-07T14:06:34.429Z,2.72
2018-08-07T14:09:05.285Z,3.30
2018-08-07T14:11:35.641Z,2.83
2018-08-07T14:14:06.320Z,3.00
2018-08-07T14:16:36.700Z,2.80
2018-08-07T14:19:07.733Z,2.92
2018-08-07T14:21:37.936Z,2.65
2018-08-07T14:24:08.180Z,3.00
2018-08-07T14:26:37.551Z,3.05
2018-08-07T14:29:07.731Z,3.02
2018-08-07T14:31:38.038Z,2.95
2018-08-07T14:34:09.460Z,2.85
2018-08-07T14:36:39.786Z,3.33
2018-08-07T14:39:11.417Z,3.12
2018-08-07T14:41:41.709Z,3.10
2018-08-07T14:44:12.009Z,3.62
2018-08-07T14:46:43.204Z,2.75
2018-08-07T14:49:13.642Z,3.37
2018-08-07T14:51:43.703Z,3.10
2018-08-07T14:54:14.890Z,3.27
2018-08-07T14:56:46.211Z,3.10
2018-08-07T14:59:16.459Z,3.10
2018-08-07T15:01:46.744Z,3.60
2018-08-07T15:04:17.145Z,3.80
2018-08-07T15:06:47.158Z,3.30
2018-08-07T15:09:17.192Z,3.27
2018-08-07T15:11:47.827Z,3.83
2018-08-07T15:14:18.015Z,3.55
2018-08-07T15:16:48.612Z,3.10
2018-08-07T15:19:19.076Z,4.22
2018-08-07T15:21:49.764Z,3.50
2018-08-07T15:24:20.100Z,3.83
2018-08-07T15:26:51.011Z,3.62
2018-08-07T15:29:22.021Z,3.70
2018-08-07T15:31:52.491Z,4.05
2018-08-07T15:34:23.766Z,3.37
2018-08-07T15:36:54.730Z,3.42
2018-08-07T15:39:25.439Z,3.60
2018-08-07T15:41:57.623Z,3.98
2018-08-07T15:44:28.141Z,3.90
2018-08-07T15:46:58.506Z,3.40
2018-08-07T15:49:29.265Z,4.50
2018-08-07T15:51:59.641Z,3.95
2018-08-07T15:54:30.267Z,4.53
2018-08-07T15:57:04.316Z,3.90
2018-08-07T15:59:35.404Z,3.83
2018-08-07T16:02:07.182Z,4.10
2018-08-07T16:04:37.521Z,3.80
2018-08-07T16:07:08.373Z,3.83
2018-08-07T16:09:42.115Z,3.83
2018-08-07T16:12:13.542Z,4.10
2018-08-07T16:14:48.739Z,3.70
2018-08-07T16:17:19.351Z,4.10
2018-08-07T16:19:53.772Z,3.72
2018-08-07T16:22:24.286Z,4.22
2018-08-07T16:24:54.809Z,3.98
2018-08-07T16:27:25.524Z,4.75
2018-08-07T16:29:56.089Z,3.77
2018-08-07T16:32:27.201Z,3.90
2018-08-07T16:34:57.570Z,4.08
2018-08-07T16:37:27.925Z,3.83
2018-08-07T16:39:58.526Z,4.12
2018-08-07T16:42:28.663Z,4.22
2018-08-07T16:44:59.346Z,4.42
2018-08-07T16:47:29.387Z,5.12
2018-08-07T16:49:59.915Z,4.45
2018-08-07T16:52:30.226Z,4.03
2018-08-07T16:55:00.607Z,4.83
2018-08-07T16:57:31.175Z,4.08
2018-08-07T17:00:01.745Z,4.47
2018-08-07T17:02:32.685Z,5.47
2018-08-07T17:05:03.689Z,4.30
2018-08-07T17:07:33.757Z,4.05
2018-08-07T17:10:07.440Z,4.45
2018-08-07T17:12:41.747Z,4.17
2018-08-07T17:15:12.422Z,5.20
2018-08-07T17:17:44.004Z,4.22
2018-08-07T17:20:17.152Z,4.45
2018-08-07T17:22:49.242Z,4.42
2018-08-07T17:25:20.744Z,4.00
2018-08-07T17:27:54.261Z,4.30
2018-08-07T17:30:27.974Z,4.10
2018-08-07T17:32:58.881Z,3.95
2018-08-07T17:35:29.331Z,3.72
2018-08-07T17:38:00.272Z,4.10
2018-08-07T17:40:31.145Z,4.20
2018-08-07T17:43:01.515Z,4.53
2018-08-07T17:45:32.356Z,4.47
2018-08-07T17:48:03.760Z,3.60
2018-08-07T17:50:34.264Z,4.10
2018-08-07T17:53:04.949Z,3.87
2018-08-07T17:55:37.556Z,4.40
2018-08-07T17:58:07.700Z,3.90
2018-08-07T18:00:38.321Z,3.50
2018-08-07T18:03:09.752Z,3.60
2018-08-07T18:05:40.758Z,4.30
2018-08-07T18:08:11.453Z,4.10
2018-08-07T18:10:42.566Z,3.90
2018-08-07T18:13:13.994Z,3.87
2018-08-07T18:15:45.212Z,3.73
2018-08-07T18:18:15.367Z,3.73
2018-08-07T18:20:45.533Z,3.83
2018-08-07T18:23:15.886Z,4.33
2018-08-07T18:25:46.379Z,4.30
2018-08-07T18:28:16.733Z,3.83
2018-08-07T18:30:47.200Z,4.10
2018-08-07T18:33:17.490Z,4.53
2018-08-07T18:35:47.914Z,3.83
2018-08-07T18:38:19.097Z,3.97
2018-08-07T18:40:49.349Z,3.97
2018-08-07T18:43:19.615Z,4.07
2018-08-07T18:45:50.071Z,4.17
2018-08-07T18:48:20.269Z,3.87
2018-08-07T18:50:51.163Z,3.90
2018-08-07T18:53:21.825Z,3.93
2018-08-07T18:55:51.820Z,4.00
2018-08-07T18:58:22.334Z,4.17
2018-08-07T19:00:53.110Z,4.03
2018-08-07T19:03:23.605Z,4.60
2018-08-07T19:05:54.097Z,4.13
2018-08-07T19:08:25.636Z,3.97
2018-08-07T19:10:55.776Z,4.30
2018-08-07T19:13:26.120Z,4.37
2018-08-07T19:15:56.831Z,4.73
2018-08-07T19:18:27.260Z,4.20
2018-08-07T19:20:57.417Z,4.00
2018-08-07T19:23:28.101Z,4.70
2018-08-07T19:25:58.259Z,4.20
2018-08-07T19:28:28.521Z,4.87
2018-08-07T19:30:58.876Z,4.00
2018-08-07T19:33:28.947Z,4.30
2018-08-07T19:35:59.149Z,6.43
2018-08-07T19:38:29.795Z,4.63
2018-08-07T19:41:00.130Z,3.80
2018-08-07T19:43:30.640Z,3.67
2018-08-07T19:46:00.753Z,3.87
2018-08-07T19:48:31.432Z,4.33
2018-08-07T19:51:01.869Z,3.90
2018-08-07T19:53:32.406Z,4.60
2018-08-07T19:56:03.042Z,4.57
2018-08-07T19:58:33.764Z,4.10
2018-08-07T20:01:07.141Z,4.37
2018-08-07T20:03:37.668Z,5.80
2018-08-07T20:06:08.295Z,3.63
2018-08-07T20:08:38.461Z,5.13
2018-08-07T20:11:08.642Z,4.70
2018-08-07T20:13:39.258Z,4.20
2018-08-07T20:16:09.510Z,4.13
2018-08-07T20:18:39.671Z,4.27
2018-08-07T20:21:10.172Z,4.33
2018-08-07T20:23:40.602Z,4.63
2018-08-07T20:26:11.132Z,3.87
2018-08-07T20:28:41.757Z,3.90
2018-08-07T20:31:12.027Z,3.90
2018-08-07T20:33:43.613Z,4.73
2018-08-07T20:36:13.746Z,4.20
2018-08-07T20:38:44.135Z,4.60
2018-08-07T20:41:14.671Z,4.30
2018-08-07T20:43:44.801Z,4.00
2018-08-07T20:46:15.056Z,3.63
2018-08-07T20:48:45.547Z,3.60
2018-08-07T20:51:15.668Z,4.27
2018-08-07T20:53:46.139Z,4.10
2018-08-07T20:56:16.596Z,3.80
2018-08-07T20:58:46.715Z,4.23
2018-08-07T21:01:17.181Z,4.00
2018-08-07T21:03:47.986Z,4.43
2018-08-07T21:06:18.254Z,4.13
2018-08-07T21:08:48.237Z,3.70
2018-08-07T21:11:18.757Z,4.37
2018-08-07T21:13:48.819Z,4.07
2018-08-07T21:16:18.945Z,5.10
2018-08-07T21:18:49.532Z,4.17
2018-08-07T21:21:19.680Z,4.70
2018-08-07T21:23:49.708Z,4.97
2018-08-07T21:26:20.059Z,3.90
2018-08-07T21:28:50.006Z,4.90
2018-08-07T21:31:19.960Z,4.03
2018-08-07T21:33:50.274Z,4.53
2018-08-07T21:36:20.321Z,4.70
2018-08-07T21:38:50.282Z,5.00
2018-08-07T21:41:20.783Z,4.40
2018-08-07T21:43:51.844Z,3.83
2018-08-07T21:46:22.045Z,4.20
2018-08-07T21:48:52.836Z,4.43
2018-08-07T21:51:23.039Z,4.00
2018-08-07T21:53:53.188Z,4.90
2018-08-07T21:56:23.238Z,4.87
2018-08-07T21:58:53.314Z,4.90
2018-08-07T22:01:23.459Z,4.63
2018-08-07T22:03:53.534Z,4.93
2018-08-07T22:06:23.604Z,4.00
2018-08-07T22:08:53.782Z,3.77
2018-08-07T22:11:24.024Z,4.77
2018-08-07T22:13:53.974Z,5.03
2018-08-07T22:16:24.405Z,4.30
2018-08-07T22:18:54.722Z,4.80
2018-08-07T22:21:24.939Z,5.33
2018-08-07T22:23:54.948Z,4.37
2018-08-07T22:26:25.329Z,5.13
2018-08-07T22:28:55.443Z,4.80
2018-08-07T22:31:26.119Z,5.37
2018-08-07T22:33:56.159Z,4.77
2018-08-07T22:36:26.196Z,4.70
2018-08-07T22:38:56.530Z,4.97
2018-08-07T22:41:26.818Z,4.37
2018-08-07T22:43:57.031Z,4.80
2018-08-07T22:46:27.515Z,4.60
2018-08-07T22:48:57.533Z,5.23
2018-08-07T22:51:28.477Z,4.97
2018-08-07T22:53:58.841Z,4.93
2018-08-07T22:56:28.207Z,4.70
2018-08-07T22:58:58.347Z,5.40
2018-08-07T23:01:28.874Z,5.20
2018-08-07T23:03:58.796Z,5.33
2018-08-07T23:06:28.829Z,4.87
2018-08-07T23:08:59.212Z,4.93
2018-08-07T23:11:29.163Z,4.73
2018-08-07T23:13:59.186Z,5.07
2018-08-07T23:16:30.341Z,5.03
2018-08-07T23:18:59.633Z,4.90
2018-08-07T23:21:28.883Z,5.20
2018-08-07T23:23:59.029Z,5.73
2018-08-07T23:26:29.562Z,4.73
2018-08-07T23:28:59.484Z,4.93
2018-08-07T23:31:29.412Z,5.37
2018-08-07T23:33:59.400Z,5.50
2018-08-07T23:36:29.628Z,5.27
2018-08-07T23:38:59.581Z,5.60
2018-08-07T23:41:29.549Z,5.17
2018-08-07T23:44:47.844Z,5.10
2018-08-07T23:47:17.859Z,5.10
2018-08-07T23:49:47.859Z,5.30
2018-08-07T23:52:18.274Z,5.10
2018-08-07T23:54:48.198Z,5.13
2018-08-07T23:57:18.292Z,4.90
2018-08-07T23:59:48.622Z,5.00
